createdAt,value
2017-12-21T00:00:30.278Z,10.70
2017-12-21T00:02:57.949Z,10.93
2017-12-21T00:05:25.398Z,11.40
2017-12-21T00:07:52.864Z,10.93
2017-12-21T00:10:26.700Z,11.80
2017-12-21T00:12:54.164Z,13.20
2017-12-21T00:15:21.656Z,13.80
2017-12-21T00:17:49.111Z,11.20
2017-12-21T00:20:16.576Z,12.77
2017-12-21T00:22:44.255Z,13.23
2017-12-21T00:25:11.711Z,13.77
2017-12-21T00:27:39.175Z,12.03
2017-12-21T00:30:06.686Z,12.00
2017-12-21T00:32:34.191Z,12.67
2017-12-21T00:35:01.647Z,12.90
2017-12-21T00:37:29.891Z,13.00
2017-12-21T00:39:57.683Z,12.37
2017-12-21T00:42:25.140Z,12.60
2017-12-21T00:44:52.811Z,12.63
2017-12-21T00:47:20.276Z,13.20
2017-12-21T00:49:48.506Z,12.60
2017-12-21T00:52:15.964Z,14.33
2017-12-21T00:54:43.422Z,14.47
2017-12-21T00:57:10.880Z,14.70
2017-12-21T00:59:38.351Z,15.03
2017-12-21T01:02:05.806Z,16.03
2017-12-21T01:04:33.283Z,16.93
2017-12-21T01:07:01.543Z,16.90
2017-12-21T01:09:29.795Z,16.30
2017-12-21T01:11:57.248Z,16.93
2017-12-21T01:14:24.731Z,17.77
2017-12-21T01:16:52.188Z,15.47
2017-12-21T01:19:19.651Z,16.00
2017-12-21T01:21:47.934Z,17.00
2017-12-21T01:24:16.172Z,19.70
2017-12-21T01:26:43.675Z,19.07
2017-12-21T01:29:11.341Z,19.03
2017-12-21T01:31:38.800Z,19.00
2017-12-21T01:34:06.251Z,21.10
2017-12-21T01:36:34.679Z,20.87
2017-12-21T01:39:02.200Z,22.47
2017-12-21T01:41:29.876Z,22.60
2017-12-21T01:43:57.338Z,24.27
2017-12-21T01:46:25.023Z,24.00
2017-12-21T01:48:52.492Z,24.43
2017-12-21T01:51:19.972Z,25.80
2017-12-21T01:53:48.212Z,24.20
2017-12-21T01:56:15.670Z,24.70
2017-12-21T01:58:43.214Z,21.90
2017-12-21T02:01:10.680Z,23.20
2017-12-21T02:03:38.188Z,23.53
2017-12-21T02:06:05.659Z,24.10
2017-12-21T02:08:33.129Z,24.00
2017-12-21T02:11:00.610Z,26.50
2017-12-21T02:13:28.127Z,28.90
2017-12-21T02:15:55.592Z,30.90
2017-12-21T02:18:23.048Z,31.40
2017-12-21T02:20:50.503Z,31.90
2017-12-21T02:23:17.956Z,28.53
2017-12-21T02:25:45.415Z,29.40
2017-12-21T02:28:12.929Z,28.57
2017-12-21T02:30:41.196Z,25.97
2017-12-21T02:33:08.680Z,26.80
2017-12-21T02:35:36.171Z,26.37
2017-12-21T02:38:03.632Z,25.40
2017-12-21T02:40:31.092Z,27.30
2017-12-21T02:42:58.550Z,27.67
2017-12-21T02:45:26.002Z,26.47
2017-12-21T02:47:53.459Z,26.40
2017-12-21T02:50:20.906Z,27.20
2017-12-21T02:52:48.409Z,23.53
2017-12-21T02:55:15.960Z,23.97
2017-12-21T02:57:44.219Z,26.00
2017-12-21T03:00:11.882Z,24.97
2017-12-21T03:02:39.339Z,23.33
2017-12-21T03:05:06.801Z,22.70
2017-12-21T03:07:34.267Z,23.20
2017-12-21T03:10:02.511Z,25.23
2017-12-21T03:12:30.044Z,24.60
2017-12-21T03:14:57.513Z,23.00
2017-12-21T03:17:25.021Z,25.00
2017-12-21T03:19:53.254Z,23.43
2017-12-21T03:22:20.716Z,24.50
2017-12-21T03:24:48.167Z,25.77
2017-12-21T03:27:15.636Z,25.47
2017-12-21T03:29:43.094Z,24.50
2017-12-21T03:32:10.547Z,25.67
2017-12-21T03:34:38.990Z,24.60
2017-12-21T03:37:06.458Z,25.83
2017-12-21T03:39:33.909Z,27.03
2017-12-21T03:42:01.369Z,26.77
2017-12-21T03:44:28.820Z,25.57
2017-12-21T03:46:56.483Z,25.07
2017-12-21T03:49:23.950Z,25.33
2017-12-21T03:51:51.415Z,24.60
2017-12-21T03:54:18.878Z,26.20
2017-12-21T03:56:46.340Z,26.10
2017-12-21T03:59:13.803Z,26.87
2017-12-21T04:01:41.251Z,27.50
2017-12-21T04:04:08.726Z,27.60
2017-12-21T04:06:37.002Z,27.17
2017-12-21T04:09:05.329Z,26.30
2017-12-21T04:11:32.804Z,26.30
2017-12-21T04:14:00.399Z,24.40
2017-12-21T04:16:28.651Z,22.03
2017-12-21T04:18:56.161Z,24.77
2017-12-21T04:21:23.843Z,24.47
2017-12-21T04:23:51.349Z,26.10
2017-12-21T04:26:18.800Z,22.80
2017-12-21T04:28:46.675Z,23.90
2017-12-21T04:31:14.911Z,25.43
2017-12-21T04:33:42.392Z,23.50
2017-12-21T04:36:09.923Z,24.53
2017-12-21T04:38:37.470Z,23.00
2017-12-21T04:41:05.147Z,23.80
2017-12-21T04:43:32.616Z,26.77
2017-12-21T04:46:00.067Z,26.70
2017-12-21T04:48:27.560Z,28.90
2017-12-21T04:50:55.768Z,26.50
2017-12-21T04:53:23.231Z,28.07
2017-12-21T04:55:50.700Z,30.60
2017-12-21T04:58:18.212Z,28.20
2017-12-21T05:00:46.460Z,27.80
2017-12-21T05:03:14.683Z,26.73
2017-12-21T05:05:42.140Z,27.87
2017-12-21T05:08:10.369Z,25.30
2017-12-21T05:10:38.044Z,23.70
2017-12-21T05:13:06.262Z,24.33
2017-12-21T05:15:34.642Z,23.77
2017-12-21T05:18:02.099Z,24.73
2017-12-21T05:20:29.595Z,26.67
2017-12-21T05:22:57.862Z,25.43
2017-12-21T05:25:25.315Z,26.13
2017-12-21T05:27:52.763Z,28.10
2017-12-21T05:30:20.215Z,26.67
2017-12-21T05:32:47.744Z,28.50
2017-12-21T05:35:15.225Z,29.57
2017-12-21T05:37:42.659Z,29.73
2017-12-21T05:40:10.131Z,28.90
2017-12-21T05:42:37.575Z,28.00
2017-12-21T05:45:05.052Z,28.80
2017-12-21T05:47:32.542Z,41.10
2017-12-21T05:50:00.870Z,38.33
2017-12-21T05:52:28.355Z,29.87
2017-12-21T05:54:55.819Z,35.83
2017-12-21T05:57:23.489Z,26.40
2017-12-21T05:59:51.766Z,28.63
2017-12-21T06:02:19.578Z,25.23
2017-12-21T06:04:47.236Z,25.03
2017-12-21T06:07:15.455Z,24.50
2017-12-21T06:09:43.712Z,31.03
2017-12-21T06:12:11.179Z,33.70
2017-12-21T06:14:38.633Z,31.23
2017-12-21T06:17:06.095Z,33.30
2017-12-21T06:19:33.559Z,31.63
2017-12-21T06:22:01.023Z,29.60
2017-12-21T06:24:29.255Z,30.03
2017-12-21T06:26:56.704Z,30.03
2017-12-21T06:29:24.485Z,29.83
2017-12-21T06:31:51.954Z,31.60
2017-12-21T06:34:19.407Z,30.67
2017-12-21T06:36:46.875Z,31.10
2017-12-21T06:39:15.095Z,31.03
2017-12-21T06:41:42.546Z,30.60
2017-12-21T06:44:10.905Z,31.50
2017-12-21T06:46:38.371Z,33.33
2017-12-21T06:49:05.820Z,28.27
2017-12-21T06:51:33.275Z,25.93
2017-12-21T06:54:00.728Z,25.60
2017-12-21T06:56:28.175Z,28.20
2017-12-21T06:58:55.631Z,27.07
2017-12-21T07:01:23.862Z,26.53
2017-12-21T07:03:51.327Z,26.27
2017-12-21T07:06:18.793Z,26.77
2017-12-21T07:08:46.256Z,31.90
2017-12-21T07:11:13.708Z,28.30
2017-12-21T07:13:41.170Z,26.20
2017-12-21T07:16:09.395Z,29.50
2017-12-21T07:18:36.846Z,30.17
2017-12-21T07:21:04.722Z,26.67
2017-12-21T07:23:32.179Z,27.67
2017-12-21T07:25:59.623Z,25.70
2017-12-21T07:28:27.078Z,27.77
2017-12-21T07:30:54.535Z,27.43
2017-12-21T07:33:21.995Z,28.83
2017-12-21T07:35:49.446Z,27.20
2017-12-21T07:38:17.140Z,26.53
2017-12-21T07:40:44.575Z,24.83
2017-12-21T07:43:12.798Z,26.20
2017-12-21T07:45:41.015Z,25.83
2017-12-21T07:48:08.489Z,24.63
2017-12-21T07:50:35.927Z,25.30
2017-12-21T07:53:03.388Z,22.40
2017-12-21T07:55:30.858Z,22.37
2017-12-21T07:57:58.302Z,21.33
2017-12-21T08:00:25.764Z,20.67
2017-12-21T08:02:53.231Z,18.77
2017-12-21T08:05:20.696Z,21.60
2017-12-21T08:07:48.170Z,21.30
2017-12-21T08:10:15.618Z,21.73
2017-12-21T08:12:43.078Z,19.87
2017-12-21T08:15:10.536Z,18.60
2017-12-21T08:17:37.992Z,18.87
2017-12-21T08:20:05.442Z,21.80
2017-12-21T08:22:32.907Z,21.50
2017-12-21T08:25:00.364Z,21.03
2017-12-21T08:27:27.840Z,21.90
2017-12-21T08:29:55.297Z,22.50
2017-12-21T08:32:22.742Z,21.60
2017-12-21T08:34:50.976Z,21.10
2017-12-21T08:37:18.430Z,20.00
2017-12-21T08:39:45.883Z,20.07
2017-12-21T08:42:13.322Z,20.20
2017-12-21T08:44:40.780Z,18.33
2017-12-21T08:47:08.248Z,19.13
2017-12-21T08:49:35.702Z,19.07
2017-12-21T08:52:03.151Z,18.87
2017-12-21T08:54:30.606Z,24.47
2017-12-21T08:56:58.071Z,24.33
2017-12-21T08:59:25.539Z,22.00
2017-12-21T09:01:52.980Z,22.70
2017-12-21T09:04:20.435Z,19.70
2017-12-21T09:06:47.890Z,20.77
2017-12-21T09:09:15.360Z,17.20
2017-12-21T09:11:42.815Z,17.07
2017-12-21T09:14:10.292Z,17.60
2017-12-21T09:16:37.749Z,18.40
2017-12-21T09:19:05.254Z,17.43
2017-12-21T09:21:32.705Z,16.33
2017-12-21T09:24:00.180Z,17.07
2017-12-21T09:26:27.641Z,18.70
2017-12-21T09:28:55.464Z,18.87
2017-12-21T09:31:23.685Z,17.63
2017-12-21T09:33:51.148Z,17.00
2017-12-21T09:36:18.604Z,17.80
2017-12-21T09:38:46.062Z,18.13
2017-12-21T09:41:13.533Z,16.80
2017-12-21T09:43:40.991Z,17.13
2017-12-21T09:46:08.444Z,18.73
2017-12-21T09:48:35.899Z,17.87
2017-12-21T09:51:03.386Z,19.17
2017-12-21T09:53:31.605Z,16.97
2017-12-21T09:55:59.062Z,17.57
2017-12-21T09:58:26.513Z,16.00
2017-12-21T10:00:53.974Z,15.30
2017-12-21T10:03:21.444Z,17.03
2017-12-21T10:05:48.903Z,16.80
2017-12-21T10:08:16.382Z,16.70
2017-12-21T10:10:43.835Z,18.37
2017-12-21T10:13:11.283Z,16.73
2017-12-21T10:15:38.745Z,17.10
2017-12-21T10:18:06.212Z,17.67
2017-12-21T10:20:34.441Z,17.00
2017-12-21T10:23:01.900Z,14.80
2017-12-21T10:25:29.376Z,16.20
2017-12-21T10:27:56.851Z,16.63
2017-12-21T10:30:24.302Z,17.33
2017-12-21T10:32:51.775Z,17.07
2017-12-21T10:35:20.011Z,17.03
2017-12-21T10:37:47.476Z,17.20
2017-12-21T10:40:14.935Z,16.07
2017-12-21T10:42:43.312Z,17.17
2017-12-21T10:45:10.779Z,17.13
2017-12-21T10:47:38.238Z,19.57
2017-12-21T10:50:06.880Z,17.63
2017-12-21T10:52:34.373Z,17.40
2017-12-21T10:55:01.836Z,19.47
2017-12-21T10:57:29.301Z,18.93
2017-12-21T10:59:56.771Z,17.40
2017-12-21T11:02:24.216Z,16.50
2017-12-21T11:04:52.964Z,16.30
2017-12-21T11:07:20.818Z,17.40
2017-12-21T11:09:48.298Z,14.67
2017-12-21T11:12:15.831Z,15.03
2017-12-21T11:14:43.316Z,15.53
2017-12-21T11:17:10.782Z,15.30
2017-12-21T11:19:38.447Z,15.60
2017-12-21T11:22:05.908Z,14.87
2017-12-21T11:27:06.389Z,13.77
2017-12-21T11:29:34.092Z,15.43
2017-12-21T11:32:01.632Z,15.23
2017-12-21T11:34:31.020Z,16.33
2017-12-21T11:36:58.552Z,15.73
2017-12-21T11:39:27.788Z,15.97
2017-12-21T11:41:55.289Z,14.73
2017-12-21T11:44:22.886Z,16.40
2017-12-21T11:46:50.424Z,16.97
2017-12-21T11:49:17.900Z,17.90
2017-12-21T11:51:46.135Z,16.37
2017-12-21T11:54:13.664Z,17.70
2017-12-21T11:56:41.155Z,17.53
2017-12-21T11:59:10.340Z,16.87
2017-12-21T12:01:37.802Z,14.50
2017-12-21T12:04:06.020Z,17.27
2017-12-21T12:06:33.500Z,16.90
2017-12-21T12:09:00.956Z,16.93
2017-12-21T12:11:28.439Z,17.07
2017-12-21T12:13:56.658Z,17.97
2017-12-21T12:16:24.114Z,17.80
2017-12-21T12:18:51.574Z,15.30
2017-12-21T12:21:19.042Z,15.30
2017-12-21T12:23:46.513Z,16.30
2017-12-21T12:26:13.979Z,15.90
2017-12-21T12:28:41.448Z,16.13
2017-12-21T12:31:08.900Z,15.33
2017-12-21T12:33:36.373Z,14.50
2017-12-21T12:36:04.607Z,15.90
2017-12-21T12:38:32.063Z,16.80
2017-12-21T12:40:59.734Z,16.03
2017-12-21T12:43:27.191Z,16.17
2017-12-21T12:45:54.664Z,17.07
2017-12-21T12:48:22.119Z,19.13
2017-12-21T12:50:49.587Z,15.83
2017-12-21T12:53:17.826Z,15.40
2017-12-21T12:55:45.303Z,15.13
2017-12-21T12:58:12.810Z,19.60
2017-12-21T13:00:40.339Z,19.30
2017-12-21T13:03:07.823Z,18.53
2017-12-21T13:05:35.264Z,17.90
2017-12-21T13:08:03.619Z,19.03
2017-12-21T13:10:31.908Z,20.50
2017-12-21T13:12:59.505Z,19.27
2017-12-21T13:15:27.071Z,17.00
2017-12-21T13:17:54.640Z,16.27
2017-12-21T13:20:22.143Z,18.33
2017-12-21T13:22:50.141Z,18.33
2017-12-21T13:25:17.661Z,17.77
2017-12-21T13:27:45.129Z,14.03
2017-12-21T13:30:12.808Z,13.83
2017-12-21T13:32:40.320Z,13.17
2017-12-21T13:35:07.854Z,13.20
2017-12-21T13:37:35.295Z,12.40
2017-12-21T13:40:02.843Z,11.27
2017-12-21T13:42:30.307Z,11.50
2017-12-21T13:44:57.756Z,10.63
2017-12-21T13:47:25.224Z,11.30
2017-12-21T13:49:52.769Z,12.97
2017-12-21T13:52:20.236Z,14.97
2017-12-21T13:54:47.691Z,9.60
2017-12-21T13:57:15.147Z,10.80
2017-12-21T13:59:42.616Z,9.33
2017-12-21T14:02:10.106Z,10.00
2017-12-21T14:04:38.403Z,10.97
2017-12-21T14:07:05.859Z,11.10
2017-12-21T14:09:33.310Z,9.53
2017-12-21T14:12:01.516Z,8.30
2017-12-21T14:14:28.973Z,8.50
2017-12-21T14:16:56.646Z,8.77
2017-12-21T14:19:24.083Z,8.23
2017-12-21T14:21:51.519Z,7.40
2017-12-21T14:24:18.970Z,7.53
2017-12-21T14:26:46.414Z,7.90
2017-12-21T14:29:14.634Z,6.93
2017-12-21T14:31:42.079Z,6.70
2017-12-21T14:34:09.540Z,6.90
2017-12-21T14:36:37.000Z,6.00
2017-12-21T14:39:04.521Z,6.70
2017-12-21T14:41:31.982Z,7.20
2017-12-21T14:43:59.424Z,8.40
2017-12-21T14:46:27.634Z,7.67
2017-12-21T14:48:55.094Z,6.80
2017-12-21T14:51:22.546Z,6.40
2017-12-21T14:53:49.987Z,5.63
2017-12-21T14:56:17.443Z,6.20
2017-12-21T14:58:44.886Z,9.67
2017-12-21T15:01:13.087Z,8.50
2017-12-21T15:03:40.519Z,6.67
2017-12-21T15:06:07.973Z,5.73
2017-12-21T15:08:36.170Z,5.60
2017-12-21T15:11:03.628Z,5.90
2017-12-21T15:13:31.071Z,6.37
2017-12-21T15:15:58.519Z,6.03
2017-12-21T15:18:25.970Z,6.40
2017-12-21T15:20:53.424Z,6.23
2017-12-21T15:23:21.627Z,5.60
2017-12-21T15:25:49.079Z,5.60
2017-12-21T15:28:16.519Z,6.30
2017-12-21T15:30:43.967Z,6.60
2017-12-21T15:33:12.172Z,6.50
2017-12-21T15:35:39.630Z,6.23
2017-12-21T15:38:07.064Z,5.67
2017-12-21T15:40:34.534Z,6.00
2017-12-21T15:43:02.046Z,5.57
2017-12-21T15:45:29.491Z,6.20
2017-12-21T15:47:56.931Z,5.30
2017-12-21T15:50:24.379Z,5.27
2017-12-21T15:52:51.838Z,5.43
2017-12-21T15:55:19.283Z,7.03
2017-12-21T15:57:46.743Z,13.43
2017-12-21T16:00:14.189Z,13.20
2017-12-21T16:02:41.640Z,11.73
2017-12-21T16:05:09.101Z,10.80
2017-12-21T16:07:36.558Z,10.87
2017-12-21T16:10:04.008Z,9.27
2017-12-21T16:12:31.475Z,10.60
2017-12-21T16:14:58.920Z,9.97
2017-12-21T16:17:26.380Z,12.50
2017-12-21T16:19:53.833Z,9.33
2017-12-21T16:22:21.292Z,11.43
2017-12-21T16:24:48.956Z,12.77
2017-12-21T16:27:18.334Z,12.57
2017-12-21T16:29:45.780Z,13.57
2017-12-21T16:32:14.039Z,17.10
2017-12-21T16:34:42.255Z,14.10
2017-12-21T16:37:09.714Z,15.50
2017-12-21T16:39:37.208Z,14.70
2017-12-21T16:42:04.666Z,14.97
2017-12-21T16:44:33.371Z,16.33
2017-12-21T16:47:01.677Z,15.53
2017-12-21T16:49:29.208Z,16.13
2017-12-21T16:51:57.456Z,15.37
2017-12-21T16:54:24.910Z,15.97
2017-12-21T16:56:52.383Z,13.97
2017-12-21T16:59:19.823Z,11.50
2017-12-21T17:01:47.267Z,20.00
2017-12-21T17:04:14.780Z,14.87
2017-12-21T17:06:42.235Z,11.23
2017-12-21T17:09:09.675Z,9.50
2017-12-21T17:11:37.918Z,10.03
2017-12-21T17:14:05.380Z,9.50
2017-12-21T17:16:32.834Z,9.97
2017-12-21T17:19:00.324Z,8.83
2017-12-21T17:21:28.541Z,9.90
2017-12-21T17:23:55.995Z,8.40
2017-12-21T17:26:23.485Z,8.80
2017-12-21T17:28:50.941Z,10.70
2017-12-21T17:31:18.424Z,10.83
2017-12-21T17:33:46.700Z,11.23
2017-12-21T17:36:14.923Z,13.20
2017-12-21T17:38:43.474Z,13.37
2017-12-21T17:41:10.944Z,16.57
2017-12-21T17:43:38.430Z,13.60
2017-12-21T17:46:05.925Z,13.07
2017-12-21T17:48:34.200Z,14.23
2017-12-21T17:51:02.421Z,15.13
2017-12-21T17:53:29.885Z,15.60
2017-12-21T17:55:57.351Z,16.17
2017-12-21T17:58:24.807Z,15.90
2017-12-21T18:00:52.276Z,15.43
2017-12-21T18:03:19.726Z,16.90
2017-12-21T18:05:47.179Z,16.23
2017-12-21T18:08:14.682Z,14.60
2017-12-21T18:10:42.165Z,15.17
2017-12-21T18:13:09.615Z,13.77
2017-12-21T18:15:37.124Z,13.27
2017-12-21T18:18:04.600Z,14.93
2017-12-21T18:20:32.853Z,14.57
2017-12-21T18:23:00.316Z,14.70
2017-12-21T18:25:28.550Z,13.07
2017-12-21T18:27:56.038Z,14.30
2017-12-21T18:30:23.500Z,13.30
2017-12-21T18:32:51.724Z,12.40
2017-12-21T18:35:19.218Z,12.50
2017-12-21T18:37:46.717Z,13.33
2017-12-21T18:40:14.218Z,12.20
2017-12-21T18:42:41.723Z,13.07
2017-12-21T18:45:09.177Z,13.90
2017-12-21T18:47:36.627Z,11.63
2017-12-21T18:50:04.083Z,17.43
2017-12-21T18:52:32.349Z,12.80
2017-12-21T18:55:00.590Z,14.70
2017-12-21T18:57:28.039Z,15.60
2017-12-21T18:59:56.655Z,15.57
2017-12-21T19:02:24.158Z,13.80
2017-12-21T19:04:51.661Z,15.03
2017-12-21T19:07:19.157Z,11.97
2017-12-21T19:09:46.670Z,11.73
2017-12-21T19:12:14.114Z,12.20
2017-12-21T19:14:41.893Z,10.37
2017-12-21T19:17:09.477Z,11.00
2017-12-21T19:19:37.002Z,12.87
2017-12-21T19:22:04.507Z,9.63
2017-12-21T19:24:31.981Z,9.37
2017-12-21T19:26:59.522Z,9.27
2017-12-21T19:29:27.143Z,10.80
2017-12-21T19:31:54.679Z,9.27
2017-12-21T19:34:22.148Z,9.10
2017-12-21T19:36:49.655Z,9.07
2017-12-21T19:39:17.168Z,9.77
2017-12-21T19:41:44.690Z,10.77
2017-12-21T19:44:12.248Z,11.10
2017-12-21T19:46:39.825Z,10.43
2017-12-21T19:49:07.367Z,10.90
2017-12-21T19:51:34.873Z,10.80
2017-12-21T19:54:03.166Z,11.27
2017-12-21T19:56:31.488Z,10.10
2017-12-21T19:58:59.000Z,10.53
2017-12-21T20:01:27.617Z,11.30
2017-12-21T20:03:55.110Z,10.10
2017-12-21T20:06:22.797Z,9.40
2017-12-21T20:08:51.119Z,8.80
2017-12-21T20:11:18.600Z,8.77
2017-12-21T20:13:46.164Z,9.07
2017-12-21T20:16:13.697Z,9.30
2017-12-21T20:18:41.232Z,9.30
2017-12-21T20:21:08.696Z,9.03
2017-12-21T20:23:36.147Z,8.77
2017-12-21T20:26:03.719Z,8.87
2017-12-21T20:28:31.214Z,7.93
2017-12-21T20:30:58.843Z,10.03
2017-12-21T20:33:26.354Z,9.70
2017-12-21T20:35:53.883Z,10.77
2017-12-21T20:38:21.382Z,11.27
2017-12-21T20:40:48.963Z,9.97
2017-12-21T20:43:16.460Z,9.10
2017-12-21T20:45:44.056Z,8.73
2017-12-21T20:48:11.657Z,8.90
2017-12-21T20:50:39.217Z,8.83
2017-12-21T20:53:06.813Z,9.10
2017-12-21T20:55:34.377Z,9.07
2017-12-21T20:58:02.752Z,8.40
2017-12-21T21:00:30.314Z,8.87
2017-12-21T21:02:57.881Z,9.30
2017-12-21T21:05:25.409Z,9.30
2017-12-21T21:07:52.954Z,8.20
2017-12-21T21:10:20.480Z,8.50
2017-12-21T21:12:48.024Z,10.67
2017-12-21T21:15:15.585Z,9.80
2017-12-21T21:17:43.077Z,10.53
2017-12-21T21:23:20.022Z,10.30
2017-12-21T21:25:48.357Z,11.70
2017-12-21T21:28:15.859Z,10.90
2017-12-21T21:30:44.134Z,12.57
2017-12-21T21:33:12.446Z,14.17
2017-12-21T21:35:40.022Z,15.00
2017-12-21T21:38:07.684Z,12.43
2017-12-21T21:40:35.263Z,12.30
2017-12-21T21:43:03.704Z,11.10
2017-12-21T21:45:32.142Z,12.10
2017-12-21T21:47:59.653Z,12.40
2017-12-21T21:50:27.192Z,10.73
2017-12-21T21:52:55.584Z,9.87
2017-12-21T21:55:23.190Z,9.00
2017-12-21T21:57:51.424Z,9.30
2017-12-21T22:00:19.008Z,10.13
2017-12-21T22:02:47.287Z,9.80
2017-12-21T22:05:14.876Z,10.20
2017-12-21T22:07:42.938Z,10.00
2017-12-21T22:10:10.496Z,9.83
2017-12-21T22:12:37.975Z,10.20
2017-12-21T22:15:05.456Z,11.00
2017-12-21T22:17:32.981Z,11.40
2017-12-21T22:20:00.495Z,10.00
2017-12-21T22:22:27.999Z,10.60
2017-12-21T22:24:55.567Z,10.10
2017-12-21T22:27:23.147Z,10.83
2017-12-21T22:29:50.706Z,9.77
2017-12-21T22:32:18.213Z,11.40
2017-12-21T22:34:45.762Z,10.57
2017-12-21T22:37:13.975Z,10.63
2017-12-21T22:39:41.465Z,11.97
2017-12-21T22:42:08.946Z,10.77
2017-12-21T22:44:37.221Z,10.03
2017-12-21T22:47:05.474Z,9.80
2017-12-21T22:49:32.939Z,9.77
2017-12-21T22:52:00.460Z,9.37
2017-12-21T22:54:27.955Z,9.60
2017-12-21T22:56:55.461Z,10.40
2017-12-21T22:59:22.950Z,9.97
2017-12-21T23:01:50.438Z,11.07
2017-12-21T23:04:18.699Z,9.90
2017-12-21T23:06:46.131Z,10.10
2017-12-21T23:09:13.584Z,10.10
2017-12-21T23:11:41.083Z,10.50
2017-12-21T23:14:09.353Z,12.40
2017-12-21T23:16:37.573Z,12.27
2017-12-21T23:19:05.067Z,12.60
2017-12-21T23:21:32.561Z,12.67
2017-12-21T23:24:00.826Z,12.43
2017-12-21T23:26:29.063Z,12.10
2017-12-21T23:28:56.565Z,11.00
2017-12-21T23:31:24.767Z,11.57
2017-12-21T23:33:52.262Z,11.03
2017-12-21T23:36:19.758Z,10.20
2017-12-21T23:38:47.196Z,12.33
2017-12-21T23:41:15.453Z,11.30
2017-12-21T23:43:42.902Z,10.40
2017-12-21T23:46:10.398Z,11.10
2017-12-21T23:48:37.831Z,10.27
2017-12-21T23:51:06.053Z,11.50
2017-12-21T23:53:33.537Z,11.00
2017-12-21T23:56:00.983Z,10.73
2017-12-21T23:58:28.432Z,10.40
